sensor_id;sensor_type;location;lat;lon;timestamp;pressure;altitude;pressure_sealevel;temperature;humidity
12722;BME280;6425;50.316;8.114;2022-10-23T00:00:23;99044.97;;;11.98;73.23
12722;BME280;6425;50.316;8.114;2022-10-23T00:05:24;99047.97;;;12.17;73.38
12722;BME280;6425;50.316;8.114;2022-10-23T00:10:27;99045.22;;;12.78;70.46
12722;BME280;6425;50.316;8.114;2022-10-23T00:15:27;99053.22;;;12.69;70.97
12722;BME280;6425;50.316;8.114;2022-10-23T00:20:28;99048.53;;;12.03;71.07
12722;BME280;6425;50.316;8.114;2022-10-23T00:25:30;99040.53;;;11.61;72.73
12722;BME280;6425;50.316;8.114;2022-10-23T00:30:30;99029.03;;;11.85;72.95
12722;BME280;6425;50.316;8.114;2022-10-23T00:35:31;99038.69;;;12.28;71.38
12722;BME280;6425;50.316;8.114;2022-10-23T00:40:33;99036.50;;;12.40;70.72
12722;BME280;6425;50.316;8.114;2022-10-23T00:45:34;99014.78;;;12.03;69.92
12722;BME280;6425;50.316;8.114;2022-10-23T00:50:35;99010.94;;;12.09;69.90
12722;BME280;6425;50.316;8.114;2022-10-23T00:55:38;98998.88;;;12.00;69.92
12722;BME280;6425;50.316;8.114;2022-10-23T01:00:42;99010.38;;;12.17;69.87
12722;BME280;6425;50.316;8.114;2022-10-23T01:05:48;98999.38;;;12.38;68.74
12722;BME280;6425;50.316;8.114;2022-10-23T01:10:55;98991.19;;;12.22;70.08
12722;BME280;6425;50.316;8.114;2022-10-23T01:16:07;98980.69;;;12.50;69.09
12722;BME280;6425;50.316;8.114;2022-10-23T01:21:16;99001.72;;;11.17;71.87
12722;BME280;6425;50.316;8.114;2022-10-23T01:26:32;99001.56;;;11.54;73.11
12722;BME280;6425;50.316;8.114;2022-10-23T01:31:38;98996.50;;;10.10;77.78
12722;BME280;6425;50.316;8.114;2022-10-23T01:36:46;99011.03;;;9.84;80.93
12722;BME280;6425;50.316;8.114;2022-10-23T01:41:50;98999.25;;;9.51;84.31
12722;BME280;6425;50.316;8.114;2022-10-23T01:47:00;98998.59;;;9.98;83.80
12722;BME280;6425;50.316;8.114;2022-10-23T01:52:07;98985.63;;;11.51;78.12
12722;BME280;6425;50.316;8.114;2022-10-23T01:57:13;98974.69;;;11.81;74.98
12722;BME280;6425;50.316;8.114;2022-10-23T02:02:18;98957.09;;;11.52;75.36
12722;BME280;6425;50.316;8.114;2022-10-23T02:07:20;98947.81;;;11.48;75.33
12722;BME280;6425;50.316;8.114;2022-10-23T02:12:27;98956.28;;;12.02;74.64
12722;BME280;6425;50.316;8.114;2022-10-23T02:17:39;98962.59;;;12.39;73.84
12722;BME280;6425;50.316;8.114;2022-10-23T02:22:50;98948.88;;;12.39;71.62
12722;BME280;6425;50.316;8.114;2022-10-23T02:27:57;98931.88;;;11.96;71.56
12722;BME280;6425;50.316;8.114;2022-10-23T02:33:12;98941.72;;;12.33;71.86
12722;BME280;6425;50.316;8.114;2022-10-23T02:38:32;98933.53;;;11.71;73.45
12722;BME280;6425;50.316;8.114;2022-10-23T02:43:36;98932.13;;;12.10;72.42
12722;BME280;6425;50.316;8.114;2022-10-23T02:48:47;98922.53;;;12.17;71.64
12722;BME280;6425;50.316;8.114;2022-10-23T02:53:58;98919.38;;;12.65;70.92
12722;BME280;6425;50.316;8.114;2022-10-23T02:59:05;98904.84;;;12.54;70.36
12722;BME280;6425;50.316;8.114;2022-10-23T03:04:15;98913.69;;;11.03;73.31
12722;BME280;6425;50.316;8.114;2022-10-23T03:09:19;98914.03;;;11.73;74.29
12722;BME280;6425;50.316;8.114;2022-10-23T03:14:22;98897.03;;;11.71;74.24
12722;BME280;6425;50.316;8.114;2022-10-23T03:19:28;98927.25;;;9.18;82.94
12722;BME280;6425;50.316;8.114;2022-10-23T03:24:32;98927.63;;;9.00;86.49
12722;BME280;6425;50.316;8.114;2022-10-23T03:29:36;98903.03;;;10.44;84.31
12722;BME280;6425;50.316;8.114;2022-10-23T03:34:42;98883.31;;;11.61;78.58
12722;BME280;6425;50.316;8.114;2022-10-23T03:39:43;98906.97;;;10.63;77.64
12722;BME280;6425;50.316;8.114;2022-10-23T03:44:47;98903.50;;;9.83;82.57
12722;BME280;6425;50.316;8.114;2022-10-23T03:49:49;98891.25;;;11.52;77.32
12722;BME280;6425;50.316;8.114;2022-10-23T03:54:49;98901.69;;;10.46;76.73
12722;BME280;6425;50.316;8.114;2022-10-23T03:59:51;98906.38;;;9.29;84.80
12722;BME280;6425;50.316;8.114;2022-10-23T04:04:55;98896.84;;;10.69;81.14
12722;BME280;6425;50.316;8.114;2022-10-23T04:09:56;98874.00;;;11.31;77.27
12722;BME280;6425;50.316;8.114;2022-10-23T04:14:57;98890.38;;;10.95;75.45
12722;BME280;6425;50.316;8.114;2022-10-23T04:20:00;98883.03;;;11.11;74.89
12722;BME280;6425;50.316;8.114;2022-10-23T04:25:01;98883.03;;;11.42;75.56
12722;BME280;6425;50.316;8.114;2022-10-23T04:30:04;98889.84;;;12.05;72.91
12722;BME280;6425;50.316;8.114;2022-10-23T04:35:07;98887.44;;;11.27;74.09
12722;BME280;6425;50.316;8.114;2022-10-23T04:40:09;98880.56;;;11.81;74.44
12722;BME280;6425;50.316;8.114;2022-10-23T04:45:13;98869.81;;;11.95;72.50
12722;BME280;6425;50.316;8.114;2022-10-23T04:50:20;98893.44;;;11.09;73.31
12722;BME280;6425;50.316;8.114;2022-10-23T04:55:47;98868.25;;;11.58;73.78
12722;BME280;6425;50.316;8.114;2022-10-23T05:00:54;98873.38;;;12.11;73.20
12722;BME280;6425;50.316;8.114;2022-10-23T05:06:00;98871.44;;;12.11;72.09
12722;BME280;6425;50.316;8.114;2022-10-23T05:11:23;98858.69;;;9.84;78.34
12722;BME280;6425;50.316;8.114;2022-10-23T05:16:31;98855.53;;;10.80;76.60
12722;BME280;6425;50.316;8.114;2022-10-23T05:21:39;98844.03;;;8.72;83.35
12722;BME280;6425;50.316;8.114;2022-10-23T05:26:41;98856.94;;;9.36;85.83
12722;BME280;6425;50.316;8.114;2022-10-23T05:31:48;98839.22;;;8.57;85.42
12722;BME280;6425;50.316;8.114;2022-10-23T05:36:56;98829.16;;;9.91;83.27
12722;BME280;6425;50.316;8.114;2022-10-23T05:42:17;98839.59;;;10.67;79.28
12722;BME280;6425;50.316;8.114;2022-10-23T05:47:32;98842.94;;;10.79;77.78
12722;BME280;6425;50.316;8.114;2022-10-23T05:52:51;98837.47;;;10.12;77.35
12722;BME280;6425;50.316;8.114;2022-10-23T05:58:26;98847.38;;;9.33;82.78
12722;BME280;6425;50.316;8.114;2022-10-23T06:03:58;98826.00;;;9.62;80.83
12722;BME280;6425;50.316;8.114;2022-10-23T06:09:21;98822.16;;;10.99;77.51
12722;BME280;6425;50.316;8.114;2022-10-23T06:14:43;98829.84;;;11.33;75.25
12722;BME280;6425;50.316;8.114;2022-10-23T06:19:53;98816.66;;;11.04;74.29
12722;BME280;6425;50.316;8.114;2022-10-23T06:25:01;98803.91;;;10.32;75.38
12722;BME280;6425;50.316;8.114;2022-10-23T06:30:11;98815.59;;;11.10;74.88
12722;BME280;6425;50.316;8.114;2022-10-23T06:35:13;98806.81;;;10.98;73.89
12722;BME280;6425;50.316;8.114;2022-10-23T06:40:19;98796.41;;;11.36;73.64
12722;BME280;6425;50.316;8.114;2022-10-23T06:45:48;98820.53;;;8.00;83.99
12722;BME280;6425;50.316;8.114;2022-10-23T06:51:31;98826.41;;;10.49;81.96
12722;BME280;6425;50.316;8.114;2022-10-23T06:56:49;98795.94;;;9.67;81.22
12722;BME280;6425;50.316;8.114;2022-10-23T07:01:57;98805.31;;;9.82;82.39
12722;BME280;6425;50.316;8.114;2022-10-23T07:07:07;98819.50;;;8.06;86.73
12722;BME280;6425;50.316;8.114;2022-10-23T07:12:20;98814.44;;;7.93;88.74
12722;BME280;6425;50.316;8.114;2022-10-23T07:17:46;98822.00;;;9.80;87.07
12722;BME280;6425;50.316;8.114;2022-10-23T07:23:04;98815.81;;;8.39;87.14
12722;BME280;6425;50.316;8.114;2022-10-23T07:28:19;98831.72;;;8.20;89.62
12722;BME280;6425;50.316;8.114;2022-10-23T07:33:31;98808.09;;;8.31;90.36
12722;BME280;6425;50.316;8.114;2022-10-23T07:38:48;98810.03;;;8.36;88.32
12722;BME280;6425;50.316;8.114;2022-10-23T07:43:54;98802.16;;;8.12;89.01
12722;BME280;6425;50.316;8.114;2022-10-23T07:54:57;98821.34;;;8.71;86.94
12722;BME280;6425;50.316;8.114;2022-10-23T08:05:30;98805.38;;;8.09;88.67
12722;BME280;6425;50.316;8.114;2022-10-23T08:10:54;98803.53;;;8.15;91.85
12722;BME280;6425;50.316;8.114;2022-10-23T08:16:01;98808.25;;;7.80;94.11
12722;BME280;6425;50.316;8.114;2022-10-23T08:32:29;98785.44;;;11.15;82.96
12722;BME280;6425;50.316;8.114;2022-10-23T08:43:40;98794.06;;;10.46;84.91
12722;BME280;6425;50.316;8.114;2022-10-23T08:49:28;98791.06;;;11.90;81.55
12722;BME280;6425;50.316;8.114;2022-10-23T09:25:23;98741.13;;;13.21;76.17
12722;BME280;6425;50.316;8.114;2022-10-23T09:30:43;98762.78;;;12.00;78.33
12722;BME280;6425;50.316;8.114;2022-10-23T09:42:12;98764.78;;;10.41;85.90
12722;BME280;6425;50.316;8.114;2022-10-23T09:47:24;98767.75;;;10.40;91.39
12722;BME280;6425;50.316;8.114;2022-10-23T09:52:53;98754.75;;;10.93;89.09
12722;BME280;6425;50.316;8.114;2022-10-23T09:58:42;98732.56;;;12.05;84.87
12722;BME280;6425;50.316;8.114;2022-10-23T10:03:59;98727.91;;;14.24;80.76
12722;BME280;6425;50.316;8.114;2022-10-23T10:27:10;98712.41;;;13.32;81.93
12722;BME280;6425;50.316;8.114;2022-10-23T10:32:57;98699.78;;;14.03;80.02
12722;BME280;6425;50.316;8.114;2022-10-23T10:38:31;98701.50;;;14.18;79.39
12722;BME280;6425;50.316;8.114;2022-10-23T10:44:33;98692.84;;;14.68;75.76
12722;BME280;6425;50.316;8.114;2022-10-23T10:50:13;98698.22;;;15.24;75.01
12722;BME280;6425;50.316;8.114;2022-10-23T10:57:39;98672.50;;;14.07;76.31
12722;BME280;6425;50.316;8.114;2022-10-23T11:01:34;98694.28;;;14.03;77.74
12722;BME280;6425;50.316;8.114;2022-10-23T11:07:04;98656.03;;;15.65;75.19
12722;BME280;6425;50.316;8.114;2022-10-23T11:12:20;98663.25;;;16.52;70.93
12722;BME280;6425;50.316;8.114;2022-10-23T11:17:34;98675.38;;;14.53;76.64
12722;BME280;6425;50.316;8.114;2022-10-23T11:22:46;98674.84;;;13.47;81.15
12722;BME280;6425;50.316;8.114;2022-10-23T11:28:16;98650.03;;;16.27;76.19
12722;BME280;6425;50.316;8.114;2022-10-23T11:34:03;98635.81;;;17.01;70.95
12722;BME280;6425;50.316;8.114;2022-10-23T11:39:17;98613.88;;;18.01;68.57
12722;BME280;6425;50.316;8.114;2022-10-23T11:44:39;98601.38;;;18.39;64.88
12722;BME280;6425;50.316;8.114;2022-10-23T11:49:45;98594.84;;;18.69;62.83
12722;BME280;6425;50.316;8.114;2022-10-23T11:54:45;98594.44;;;18.97;61.64
12722;BME280;6425;50.316;8.114;2022-10-23T11:59:51;98609.81;;;18.77;61.30
12722;BME280;6425;50.316;8.114;2022-10-23T12:04:55;98584.69;;;19.29;59.08
12722;BME280;6425;50.316;8.114;2022-10-23T12:09:58;98569.28;;;20.20;56.92
12722;BME280;6425;50.316;8.114;2022-10-23T12:15:18;98576.59;;;17.11;70.50
12722;BME280;6425;50.316;8.114;2022-10-23T12:20:34;98567.81;;;16.55;75.45
12722;BME280;6425;50.316;8.114;2022-10-23T12:25:40;98566.88;;;16.37;74.21
12722;BME280;6425;50.316;8.114;2022-10-23T12:30:53;98542.00;;;17.88;69.62
12722;BME280;6425;50.316;8.114;2022-10-23T12:36:22;98544.78;;;19.04;61.13
12722;BME280;6425;50.316;8.114;2022-10-23T12:41:26;98508.94;;;20.00;56.84
12722;BME280;6425;50.316;8.114;2022-10-23T12:46:30;98501.44;;;20.79;51.81
12722;BME280;6425;50.316;8.114;2022-10-23T12:51:34;98495.13;;;21.27;50.57
12722;BME280;6425;50.316;8.114;2022-10-23T12:56:35;98497.53;;;21.90;49.34
12722;BME280;6425;50.316;8.114;2022-10-23T13:01:36;98484.91;;;22.37;47.89
12722;BME280;6425;50.316;8.114;2022-10-23T13:06:42;98464.78;;;22.59;46.07
12722;BME280;6425;50.316;8.114;2022-10-23T13:11:49;98456.34;;;23.03;45.42
12722;BME280;6425;50.316;8.114;2022-10-23T13:17:00;98446.31;;;21.70;47.80
12722;BME280;6425;50.316;8.114;2022-10-23T13:22:14;98438.34;;;21.44;49.13
12722;BME280;6425;50.316;8.114;2022-10-23T13:27:24;98441.59;;;21.59;49.24
12722;BME280;6425;50.316;8.114;2022-10-23T13:32:35;98429.53;;;21.83;48.86
12722;BME280;6425;50.316;8.114;2022-10-23T13:37:40;98428.88;;;21.21;48.89
12722;BME280;6425;50.316;8.114;2022-10-23T13:42:43;98434.78;;;21.32;49.71
12722;BME280;6425;50.316;8.114;2022-10-23T13:47:44;98417.34;;;20.61;49.47
12722;BME280;6425;50.316;8.114;2022-10-23T13:52:46;98418.84;;;20.46;50.20
12722;BME280;6425;50.316;8.114;2022-10-23T13:57:50;98423.16;;;21.42;48.52
12722;BME280;6425;50.316;8.114;2022-10-23T14:02:51;98417.00;;;22.17;47.86
12722;BME280;6425;50.316;8.114;2022-10-23T14:07:53;98416.63;;;22.18;47.34
12722;BME280;6425;50.316;8.114;2022-10-23T14:12:54;98420.66;;;22.49;46.85
12722;BME280;6425;50.316;8.114;2022-10-23T14:17:54;98419.50;;;22.06;47.87
12722;BME280;6425;50.316;8.114;2022-10-23T14:22:57;98414.25;;;21.76;47.98
12722;BME280;6425;50.316;8.114;2022-10-23T14:28:09;98384.72;;;20.37;50.81
12722;BME280;6425;50.316;8.114;2022-10-23T14:33:19;98392.50;;;19.65;52.28
12722;BME280;6425;50.316;8.114;2022-10-23T14:38:32;98389.22;;;19.63;52.67
12722;BME280;6425;50.316;8.114;2022-10-23T14:43:36;98383.19;;;20.27;51.81
12722;BME280;6425;50.316;8.114;2022-10-23T14:48:57;98377.31;;;20.29;51.66
12722;BME280;6425;50.316;8.114;2022-10-23T14:54:05;98355.06;;;20.29;50.54
12722;BME280;6425;50.316;8.114;2022-10-23T14:59:11;98356.72;;;20.67;50.08
12722;BME280;6425;50.316;8.114;2022-10-23T15:04:12;98343.66;;;20.22;50.91
12722;BME280;6425;50.316;8.114;2022-10-23T15:09:32;98340.69;;;18.98;54.34
12722;BME280;6425;50.316;8.114;2022-10-23T15:14:34;98339.59;;;18.69;56.18
12722;BME280;6425;50.316;8.114;2022-10-23T15:19:49;98355.38;;;17.66;59.21
12722;BME280;6425;50.316;8.114;2022-10-23T15:25:16;98332.91;;;17.33;60.99
12722;BME280;6425;50.316;8.114;2022-10-23T15:30:17;98343.16;;;17.15;61.38
12722;BME280;6425;50.316;8.114;2022-10-23T15:35:18;98337.47;;;17.38;60.84
12722;BME280;6425;50.316;8.114;2022-10-23T15:45:48;98301.06;;;18.29;57.97
12722;BME280;6425;50.316;8.114;2022-10-23T15:51:05;98300.88;;;18.94;57.76
12722;BME280;6425;50.316;8.114;2022-10-23T15:56:39;98305.13;;;18.41;58.25
12722;BME280;6425;50.316;8.114;2022-10-23T16:01:56;98294.88;;;18.92;57.55
12722;BME280;6425;50.316;8.114;2022-10-23T16:12:49;98293.84;;;17.09;62.28
12722;BME280;6425;50.316;8.114;2022-10-23T16:17:52;98292.09;;;18.71;59.67
12722;BME280;6425;50.316;8.114;2022-10-23T16:22:52;98306.41;;;18.05;60.21
12722;BME280;6425;50.316;8.114;2022-10-23T16:27:56;98297.53;;;17.56;62.91
12722;BME280;6425;50.316;8.114;2022-10-23T16:32:57;98278.91;;;18.59;59.85
12722;BME280;6425;50.316;8.114;2022-10-23T16:37:58;98286.59;;;17.68;62.03
12722;BME280;6425;50.316;8.114;2022-10-23T16:54:47;98229.38;;;17.90;60.95
12722;BME280;6425;50.316;8.114;2022-10-23T16:59:56;98234.41;;;17.96;62.02
12722;BME280;6425;50.316;8.114;2022-10-23T17:04:57;98245.00;;;17.13;64.14
12722;BME280;6425;50.316;8.114;2022-10-23T17:09:59;98280.66;;;16.79;65.78
12722;BME280;6425;50.316;8.114;2022-10-23T17:15:00;98281.19;;;16.33;69.57
12722;BME280;6425;50.316;8.114;2022-10-23T17:20:02;98294.91;;;16.64;68.05
12722;BME280;6425;50.316;8.114;2022-10-23T17:25:07;98331.66;;;16.56;67.66
12722;BME280;6425;50.316;8.114;2022-10-23T17:30:09;98353.69;;;16.39;69.91
12722;BME280;6425;50.316;8.114;2022-10-23T17:35:10;98356.81;;;16.06;71.19
12722;BME280;6425;50.316;8.114;2022-10-23T17:40:18;98390.53;;;15.49;74.98
12722;BME280;6425;50.316;8.114;2022-10-23T17:45:22;98387.38;;;15.42;76.71
12722;BME280;6425;50.316;8.114;2022-10-23T17:50:25;98406.19;;;15.99;77.12
12722;BME280;6425;50.316;8.114;2022-10-23T17:55:28;98431.97;;;15.36;79.59
12722;BME280;6425;50.316;8.114;2022-10-23T18:00:28;98425.66;;;17.04;74.35
12722;BME280;6425;50.316;8.114;2022-10-23T18:05:30;98422.28;;;18.20;70.96
12722;BME280;6425;50.316;8.114;2022-10-23T18:10:38;98403.88;;;18.71;67.10
12722;BME280;6425;50.316;8.114;2022-10-23T18:15:39;98400.00;;;16.64;74.03
12722;BME280;6425;50.316;8.114;2022-10-23T18:20:39;98431.66;;;16.49;75.75
12722;BME280;6425;50.316;8.114;2022-10-23T18:25:54;98397.66;;;16.89;74.48
12722;BME280;6425;50.316;8.114;2022-10-23T18:31:07;98354.28;;;15.87;76.71
12722;BME280;6425;50.316;8.114;2022-10-23T18:36:12;98339.25;;;15.57;79.49
12722;BME280;6425;50.316;8.114;2022-10-23T18:41:18;98315.84;;;15.99;78.52
12722;BME280;6425;50.316;8.114;2022-10-23T18:46:23;98324.75;;;16.76;76.08
12722;BME280;6425;50.316;8.114;2022-10-23T18:51:25;98342.78;;;15.94;78.63
12722;BME280;6425;50.316;8.114;2022-10-23T18:56:39;98368.53;;;15.80;80.46
12722;BME280;6425;50.316;8.114;2022-10-23T19:01:44;98384.25;;;14.71;84.71
12722;BME280;6425;50.316;8.114;2022-10-23T19:06:49;98377.25;;;15.74;80.82
12722;BME280;6425;50.316;8.114;2022-10-23T19:11:54;98388.88;;;16.47;77.45
12722;BME280;6425;50.316;8.114;2022-10-23T19:17:00;98384.66;;;16.98;74.54
12722;BME280;6425;50.316;8.114;2022-10-23T19:22:03;98372.31;;;17.65;71.69
12722;BME280;6425;50.316;8.114;2022-10-23T19:27:14;98366.94;;;17.25;71.54
12722;BME280;6425;50.316;8.114;2022-10-23T19:32:18;98387.00;;;17.83;71.14
12722;BME280;6425;50.316;8.114;2022-10-23T19:37:26;98385.34;;;17.64;70.29
12722;BME280;6425;50.316;8.114;2022-10-23T19:42:32;98385.88;;;16.74;72.81
12722;BME280;6425;50.316;8.114;2022-10-23T19:47:54;98380.91;;;17.02;72.65
12722;BME280;6425;50.316;8.114;2022-10-23T19:53:08;98369.22;;;16.97;72.42
12722;BME280;6425;50.316;8.114;2022-10-23T19:58:15;98384.50;;;16.15;75.85
12722;BME280;6425;50.316;8.114;2022-10-23T20:03:16;98392.38;;;15.76;79.70
12722;BME280;6425;50.316;8.114;2022-10-23T20:08:22;98412.75;;;15.30;81.90
12722;BME280;6425;50.316;8.114;2022-10-23T20:13:31;98419.69;;;15.42;81.88
12722;BME280;6425;50.316;8.114;2022-10-23T20:18:31;98420.31;;;15.39;82.82
12722;BME280;6425;50.316;8.114;2022-10-23T20:23:44;98432.81;;;15.95;82.86
12722;BME280;6425;50.316;8.114;2022-10-23T20:29:00;98431.53;;;16.23;80.28
12722;BME280;6425;50.316;8.114;2022-10-23T20:34:08;98418.53;;;17.21;76.14
12722;BME280;6425;50.316;8.114;2022-10-23T20:39:11;98422.56;;;16.89;76.82
12722;BME280;6425;50.316;8.114;2022-10-23T20:44:15;98416.94;;;16.71;77.27
12722;BME280;6425;50.316;8.114;2022-10-23T20:49:19;98421.22;;;16.77;77.93
12722;BME280;6425;50.316;8.114;2022-10-23T20:54:20;98417.00;;;16.80;77.25
12722;BME280;6425;50.316;8.114;2022-10-23T20:59:54;98402.88;;;16.19;79.38
12722;BME280;6425;50.316;8.114;2022-10-23T21:04:56;98408.06;;;15.90;81.33
12722;BME280;6425;50.316;8.114;2022-10-23T21:10:00;98414.72;;;16.11;80.38
12722;BME280;6425;50.316;8.114;2022-10-23T21:15:03;98430.91;;;15.82;81.13
12722;BME280;6425;50.316;8.114;2022-10-23T21:20:05;98442.06;;;16.21;80.62
12722;BME280;6425;50.316;8.114;2022-10-23T21:25:06;98447.00;;;16.02;80.33
12722;BME280;6425;50.316;8.114;2022-10-23T21:30:10;98440.44;;;16.20;79.94
12722;BME280;6425;50.316;8.114;2022-10-23T21:35:14;98440.44;;;16.20;79.05
12722;BME280;6425;50.316;8.114;2022-10-23T21:40:15;98448.09;;;16.01;79.46
12722;BME280;6425;50.316;8.114;2022-10-23T21:45:17;98437.53;;;16.25;78.64
12722;BME280;6425;50.316;8.114;2022-10-23T21:50:21;98446.00;;;16.29;77.80
12722;BME280;6425;50.316;8.114;2022-10-23T21:55:24;98439.81;;;16.01;78.40
12722;BME280;6425;50.316;8.114;2022-10-23T22:00:26;98450.53;;;16.25;77.32
12722;BME280;6425;50.316;8.114;2022-10-23T22:05:27;98444.25;;;16.33;77.59
12722;BME280;6425;50.316;8.114;2022-10-23T22:10:28;98434.00;;;16.34;77.07
12722;BME280;6425;50.316;8.114;2022-10-23T22:15:30;98444.09;;;15.85;78.88
12722;BME280;6425;50.316;8.114;2022-10-23T22:20:30;98454.41;;;15.56;79.07
12722;BME280;6425;50.316;8.114;2022-10-23T22:25:36;98445.66;;;15.41;79.78
12722;BME280;6425;50.316;8.114;2022-10-23T22:30:43;98454.09;;;15.58;79.93
12722;BME280;6425;50.316;8.114;2022-10-23T22:35:44;98442.41;;;15.61;80.34
12722;BME280;6425;50.316;8.114;2022-10-23T22:40:44;98455.50;;;15.33;80.15
12722;BME280;6425;50.316;8.114;2022-10-23T22:45:49;98444.50;;;15.19;82.27
12722;BME280;6425;50.316;8.114;2022-10-23T22:50:54;98432.31;;;15.93;78.52
12722;BME280;6425;50.316;8.114;2022-10-23T22:56:00;98441.38;;;15.35;78.44
12722;BME280;6425;50.316;8.114;2022-10-23T23:01:13;98440.81;;;15.10;81.33
12722;BME280;6425;50.316;8.114;2022-10-23T23:06:26;98432.47;;;16.50;76.39
12722;BME280;6425;50.316;8.114;2022-10-23T23:11:30;98449.47;;;17.05;71.18
12722;BME280;6425;50.316;8.114;2022-10-23T23:16:35;98451.53;;;16.60;72.27
12722;BME280;6425;50.316;8.114;2022-10-23T23:21:50;98435.94;;;17.04;70.17
12722;BME280;6425;50.316;8.114;2022-10-23T23:26:58;98449.88;;;15.74;75.57
12722;BME280;6425;50.316;8.114;2022-10-23T23:32:02;98442.53;;;15.56;79.52
12722;BME280;6425;50.316;8.114;2022-10-23T23:37:03;98451.69;;;15.79;79.63
12722;BME280;6425;50.316;8.114;2022-10-23T23:42:04;98447.63;;;15.76;79.21
12722;BME280;6425;50.316;8.114;2022-10-23T23:47:13;98421.22;;;15.70;79.41
12722;BME280;6425;50.316;8.114;2022-10-23T23:52:14;98434.09;;;16.20;77.40
12722;BME280;6425;50.316;8.114;2022-10-23T23:57:17;98443.78;;;16.09;77.90
